KCLM/CLM METAR and TAF weather

Enter ICAO airport designator
Station Type Date Time Source
KCLM METAR 2020/12/06 00:53 UTC NOAA

KCLM 060053Z AUTO 21003KT 10SM CLR 05/03 A3001 RMK AO2 SLP164 T00500028


Station Type Date Time Source
KCLM Decoded METAR 2020/12/06 00:53 UTC NOAA

PORT ANGELES FAIRCHILD INTERNATIONAL , WA, United States (KCLM) 48-07N 123-30W 85M
Dec 05, 2020 - 07:53 PM EST / 2020.12.06 0053 UTC
Wind: from the SSW (210 degrees) at 3 MPH (3 KT):0
Visibility: 10 mile(s):0
Sky conditions: clear
Temperature: 41.0 F (5.0 C)
Dew Point: 37.0 F (2.8 C)
Relative Humidity: 85%
Pressure (altimeter): 30.01 in. Hg (1016 hPa)
ob: KCLM 060053Z AUTO 21003KT 10SM CLR 05/03 A3001 RMK AO2 SLP164 T00500028
cycle: 1

Station Type Date Time Source
KCLM TAF 2020/12/05 18:24 UTC NOAA

TAF KCLM 051720Z 0518/0618 VRB03KT P6SM SKC
FM052000 10006KT P6SM SKC
FM052200 12006KT P6SM BKN100 OVC200
FM060700 12006KT P6SM -RA BKN040 OVC060
FM061500 21004KT 6SM BR OVC025

Example: see airport list